Time;durP1;ratioP1;P1;durP2;ratioP2;P2;SDS_P1;SDS_P2;PMS_P1;PMS_P2;Temp;Humidity;BMP_temperature;BMP_pressure;BME280_temperature;BME280_humidity;BME280_pressure;Samples;Min_cycle;Max_cycle;Signal;HPM_P1;HPM_P2
2022/02/13 00:00:13;;;;;;;19.37;18.20;;;5.10;65.70;;;;;;4955918;28;20486;-87
2022/02/13 00:02:40;;;;;;;19.70;18.70;;;5.00;65.70;;;;;;4957440;28;20058;-87
2022/02/13 00:05:06;;;;;;;18.23;17.10;;;5.00;65.70;;;;;;4958160;28;20043;-87
2022/02/13 00:07:35;;;;;;;18.10;17.17;;;5.00;65.80;;;;;;4963211;28;20039;-87
2022/02/13 00:10:03;;;;;;;18.77;17.87;;;4.90;65.80;;;;;;4964899;28;20027;-87
2022/02/13 00:12:29;;;;;;;18.37;17.57;;;4.90;65.90;;;;;;4953375;28;20034;-87
2022/02/13 00:14:55;;;;;;;19.93;18.83;;;4.80;65.90;;;;;;4957463;28;20023;-87
2022/02/13 00:17:22;;;;;;;19.63;18.50;;;4.80;66.00;;;;;;4958048;28;20043;-87
2022/02/13 00:19:48;;;;;;;18.80;17.90;;;4.80;66.00;;;;;;4957865;28;20051;-86
2022/02/13 00:22:15;;;;;;;19.07;17.97;;;4.80;66.00;;;;;;4965087;28;20046;-87
2022/02/13 00:24:42;;;;;;;19.73;18.70;;;4.70;66.00;;;;;;4954095;28;20043;-87
2022/02/13 00:27:08;;;;;;;19.37;18.13;;;4.70;66.10;;;;;;4957731;28;20038;-87
2022/02/13 00:29:34;;;;;;;17.83;16.93;;;4.70;66.10;;;;;;4957861;28;20035;-87
2022/02/13 00:32:00;;;;;;;18.50;17.60;;;4.70;66.10;;;;;;4962082;28;20046;-87
2022/02/13 00:34:26;;;;;;;19.10;18.20;;;4.70;66.10;;;;;;4957374;28;20537;-87
2022/02/13 00:36:52;;;;;;;20.37;19.27;;;4.60;66.00;;;;;;4955855;28;20031;-88
2022/02/13 00:39:18;;;;;;;18.83;17.93;;;4.70;66.10;;;;;;4959271;28;20488;-88
2022/02/13 00:41:44;;;;;;;19.60;18.60;;;4.70;66.00;;;;;;4958331;28;20043;-88
2022/02/13 00:44:10;;;;;;;20.60;19.43;;;4.70;66.00;;;;;;4957484;28;20414;-87
2022/02/13 00:46:37;;;;;;;20.57;19.47;;;4.70;66.00;;;;;;4961684;28;20043;-88
2022/02/13 00:49:03;;;;;;;19.37;18.37;;;4.70;66.00;;;;;;4957239;28;20038;-87
2022/02/13 00:51:29;;;;;;;18.87;17.87;;;4.70;66.10;;;;;;4953173;28;20533;-87
2022/02/13 00:53:55;;;;;;;20.47;18.93;;;4.70;66.00;;;;;;4957655;28;20035;-87
2022/02/13 00:56:21;;;;;;;18.67;17.67;;;4.70;66.00;;;;;;4956522;28;20035;-88
2022/02/13 00:58:47;;;;;;;19.13;18.13;;;4.60;66.00;;;;;;4957292;28;20322;-87
2022/02/13 01:01:13;;;;;;;18.43;17.53;;;4.60;66.00;;;;;;4957126;28;20043;-87
2022/02/13 01:03:40;;;;;;;18.90;18.00;;;4.50;66.10;;;;;;4967656;28;20043;-87
2022/02/13 01:06:06;;;;;;;18.90;17.90;;;4.50;66.20;;;;;;4957240;28;20203;-87
2022/02/13 01:08:33;;;;;;;18.27;17.37;;;4.40;66.20;;;;;;4957363;28;20494;-87
2022/02/13 01:10:59;;;;;;;20.63;19.43;;;4.40;66.30;;;;;;4964823;28;20026;-87
2022/02/13 01:13:26;;;;;;;19.57;18.67;;;4.40;66.50;;;;;;4948987;28;20034;-87
2022/02/13 01:15:52;;;;;;;19.73;18.63;;;4.40;66.30;;;;;;4967445;28;20043;-88
2022/02/13 01:18:18;;;;;;;20.20;19.20;;;4.30;66.30;;;;;;4954818;28;20471;-87
2022/02/13 01:20:44;;;;;;;19.37;18.17;;;4.30;66.40;;;;;;4957778;28;20046;-88
2022/02/13 01:23:10;;;;;;;17.80;17.00;;;4.30;66.40;;;;;;4960987;28;20035;-87
2022/02/13 01:25:36;;;;;;;20.00;19.00;;;4.30;66.50;;;;;;4961272;28;20034;-87
2022/02/13 01:28:03;;;;;;;19.20;17.83;;;4.20;66.50;;;;;;4966435;28;20027;-87
2022/02/13 01:30:29;;;;;;;17.93;17.10;;;4.20;66.60;;;;;;4971611;28;20050;-87
2022/02/13 01:32:56;;;;;;;19.77;18.63;;;4.20;66.60;;;;;;4962761;28;20031;-87
2022/02/13 01:35:22;;;;;;;17.90;17.00;;;4.20;66.60;;;;;;4962518;28;20513;-88
2022/02/13 01:37:48;;;;;;;18.30;17.40;;;4.20;66.60;;;;;;4960896;28;20027;-87
2022/02/13 01:40:14;;;;;;;18.40;17.50;;;4.20;66.60;;;;;;4962075;28;20409;-87
2022/02/13 01:42:40;;;;;;;16.97;16.17;;;4.20;66.60;;;;;;4971823;28;20032;-88
2022/02/13 01:45:07;;;;;;;18.43;17.53;;;4.20;66.60;;;;;;4960019;28;20039;-88
2022/02/13 01:47:34;;;;;;;18.17;17.37;;;4.10;66.60;;;;;;4961554;28;20371;-87
2022/02/13 01:50:01;;;;;;;18.87;17.87;;;4.10;66.60;;;;;;4964729;28;20506;-87
2022/02/13 01:52:27;;;;;;;17.80;16.90;;;4.10;66.70;;;;;;4967291;28;20049;-87
2022/02/13 01:54:53;;;;;;;19.90;18.70;;;4.10;66.80;;;;;;4958715;28;20034;-87
2022/02/13 01:57:19;;;;;;;18.67;17.77;;;4.00;66.80;;;;;;4956742;28;20046;-87
2022/02/13 01:59:47;;;;;;;19.00;18.00;;;4.00;66.90;;;;;;4959459;28;20414;-87
2022/02/13 02:02:13;;;;;;;18.40;17.50;;;4.00;66.90;;;;;;4960202;28;20423;-88
2022/02/13 02:04:40;;;;;;;19.03;18.13;;;4.00;66.90;;;;;;4960539;28;20042;-87
2022/02/13 02:07:06;;;;;;;19.90;18.43;;;4.00;66.90;;;;;;4971196;28;20035;-88
2022/02/13 02:09:32;;;;;;;20.67;19.17;;;4.00;66.90;;;;;;4956554;28;20390;-87
2022/02/13 02:12:05;;;;;;;18.60;17.63;;;4.00;66.90;;;;;;4961034;28;20034;-88
2022/02/13 02:14:31;;;;;;;20.07;18.97;;;3.90;66.90;;;;;;4960568;28;20042;-87
2022/02/13 02:16:57;;;;;;;18.73;17.83;;;3.90;66.90;;;;;;4968420;28;20042;-88
2022/02/13 02:19:23;;;;;;;17.70;16.80;;;3.90;67.00;;;;;;4960634;28;20046;-87
2022/02/13 02:21:49;;;;;;;18.93;18.03;;;3.90;67.10;;;;;;4956653;28;20486;-88
2022/02/13 02:24:16;;;;;;;18.33;17.43;;;3.90;67.00;;;;;;4958456;28;20046;-87
2022/02/13 02:26:43;;;;;;;18.60;17.57;;;3.80;67.00;;;;;;4960377;28;20047;-87
2022/02/13 02:29:09;;;;;;;17.33;16.53;;;3.80;67.00;;;;;;4960234;28;20434;-88
2022/02/13 02:31:35;;;;;;;18.60;17.70;;;3.80;67.00;;;;;;4958939;28;20047;-87
2022/02/13 02:34:02;;;;;;;19.77;18.77;;;3.80;67.00;;;;;;4966101;28;20043;-87
2022/02/13 02:36:28;;;;;;;16.70;15.90;;;3.80;67.00;;;;;;4970725;28;20027;-88
2022/02/13 02:38:54;;;;;;;17.90;17.10;;;3.80;67.00;;;;;;4972501;28;20393;-87
2022/02/13 02:41:20;;;;;;;17.60;16.80;;;3.80;67.00;;;;;;4960292;28;20054;-87
2022/02/13 02:43:46;;;;;;;18.13;17.33;;;3.70;66.90;;;;;;4959769;28;20043;-88
2022/02/13 02:46:12;;;;;;;18.27;17.37;;;3.60;67.10;;;;;;4959575;28;20054;-88
2022/02/13 02:48:39;;;;;;;17.93;17.13;;;3.60;67.20;;;;;;4955288;28;20028;-87
2022/02/13 02:51:06;;;;;;;18.77;17.63;;;3.50;67.10;;;;;;4959990;28;20375;-88
2022/02/13 02:53:33;;;;;;;18.70;17.80;;;3.50;67.10;;;;;;4960151;28;20434;-87
2022/02/13 02:55:59;;;;;;;19.93;18.87;;;3.50;67.30;;;;;;4970388;28;20031;-88
2022/02/13 02:58:26;;;;;;;19.47;18.40;;;3.40;67.20;;;;;;4946654;29;20035;-87
2022/02/13 03:00:52;;;;;;;18.53;17.67;;;3.40;67.20;;;;;;4956610;28;20058;-88
2022/02/13 03:03:18;;;;;;;19.17;18.17;;;3.40;67.20;;;;;;4954980;28;20497;-88
2022/02/13 03:05:45;;;;;;;17.77;16.97;;;3.40;67.30;;;;;;4951012;29;20055;-88
2022/02/13 03:08:11;;;;;;;19.17;18.17;;;3.40;67.30;;;;;;4949198;29;20039;-88
2022/02/13 03:10:37;;;;;;;17.77;16.97;;;3.40;67.30;;;;;;4949616;28;20507;-88
2022/02/13 03:13:03;;;;;;;17.73;16.93;;;3.40;67.30;;;;;;4941126;29;20030;-88
2022/02/13 03:15:29;;;;;;;18.40;17.50;;;3.40;67.30;;;;;;4958031;28;20495;-88
2022/02/13 03:17:56;;;;;;;18.97;18.07;;;3.40;67.30;;;;;;4953214;28;20042;-86
2022/02/13 03:20:22;;;;;;;17.80;17.00;;;3.30;67.20;;;;;;4952382;28;20557;-88
2022/02/13 03:22:48;;;;;;;18.07;17.17;;;3.30;67.30;;;;;;4950751;29;20042;-88
2022/02/13 03:25:14;;;;;;;17.83;17.03;;;3.30;67.30;;;;;;4951861;28;20031;-88
2022/02/13 03:27:40;;;;;;;17.53;16.73;;;3.30;68.10;;;;;;4949223;29;20474;-88
2022/02/13 03:30:07;;;;;;;18.47;17.43;;;3.30;67.30;;;;;;4953673;28;20035;-88
2022/02/13 03:32:33;;;;;;;17.87;17.07;;;3.40;67.40;;;;;;4951444;28;20039;-88
2022/02/13 03:35:00;;;;;;;18.50;17.67;;;3.40;67.30;;;;;;4952594;28;20046;-88
2022/02/13 03:37:26;;;;;;;18.17;17.37;;;3.40;67.40;;;;;;4956591;28;20041;-87
2022/02/13 03:39:53;;;;;;;17.77;16.93;;;3.40;67.30;;;;;;4960641;28;20028;-88
2022/02/13 03:42:19;;;;;;;18.17;17.37;;;3.40;67.30;;;;;;4956749;28;20035;-88
2022/02/13 03:44:45;;;;;;;18.37;17.47;;;3.40;67.30;;;;;;4958328;28;20034;-88
2022/02/13 03:47:11;;;;;;;18.37;17.57;;;3.50;67.30;;;;;;4957969;28;20039;-89
2022/02/13 03:49:37;;;;;;;17.30;16.50;;;3.50;67.30;;;;;;4959112;28;20451;-87
2022/02/13 03:52:04;;;;;;;18.90;17.90;;;3.50;67.30;;;;;;4963749;28;20046;-88
2022/02/13 03:54:30;;;;;;;18.77;17.83;;;3.50;67.30;;;;;;4969816;28;20387;-87
2022/02/13 03:56:56;;;;;;;18.40;17.50;;;3.50;67.30;;;;;;4958762;28;20043;-88
2022/02/13 03:59:22;;;;;;;17.87;17.07;;;3.50;67.30;;;;;;4958824;28;20520;-88
2022/02/13 04:01:48;;;;;;;18.60;17.70;;;3.60;67.30;;;;;;4957597;28;20043;-88
2022/02/13 04:04:14;;;;;;;18.00;17.20;;;3.60;67.20;;;;;;4950174;28;20410;-88
2022/02/13 04:06:40;;;;;;;18.23;17.43;;;3.60;67.20;;;;;;4961619;28;20039;-88
2022/02/13 04:09:07;;;;;;;17.67;16.87;;;3.60;67.20;;;;;;4959561;28;20031;-88
2022/02/13 04:11:33;;;;;;;18.07;17.17;;;3.60;67.30;;;;;;4958474;28;20036;-87
2022/02/13 04:13:59;;;;;;;17.83;17.03;;;3.60;67.30;;;;;;4958196;28;20042;-87
2022/02/13 04:16:25;;;;;;;18.00;17.20;;;3.60;67.30;;;;;;4961818;28;20489;-88
2022/02/13 04:18:51;;;;;;;17.83;17.03;;;3.60;67.30;;;;;;4955753;28;20046;-87
2022/02/13 04:21:17;;;;;;;18.10;17.20;;;3.70;67.30;;;;;;4956162;28;20380;-88
2022/02/13 04:23:43;;;;;;;18.53;17.63;;;3.60;67.20;;;;;;4962766;28;20038;-88
2022/02/13 04:26:09;;;;;;;18.07;17.27;;;3.70;67.30;;;;;;4959440;28;20070;-87
2022/02/13 04:28:35;;;;;;;18.27;17.27;;;3.70;67.20;;;;;;4958431;28;20038;-87
2022/02/13 04:31:01;;;;;;;17.87;17.07;;;3.70;67.20;;;;;;4956392;28;20039;-88
2022/02/13 04:33:28;;;;;;;18.07;17.27;;;3.80;67.20;;;;;;4953619;28;20501;-88
2022/02/13 04:35:54;;;;;;;17.70;16.90;;;3.80;67.20;;;;;;4969558;28;20039;-88
2022/02/13 04:38:21;;;;;;;17.57;16.77;;;3.80;67.20;;;;;;4961843;28;20466;-89
2022/02/13 04:40:47;;;;;;;17.93;17.10;;;3.80;67.20;;;;;;4963659;28;20054;-88
2022/02/13 04:43:13;;;;;;;17.90;17.10;;;3.80;67.20;;;;;;4958160;28;20035;-88
2022/02/13 04:45:39;;;;;;;18.63;17.73;;;3.80;67.30;;;;;;4953396;28;20050;-87
2022/02/13 04:48:06;;;;;;;18.43;17.57;;;3.80;67.30;;;;;;4956568;28;20214;-87
2022/02/13 04:50:33;;;;;;;18.10;17.30;;;3.80;67.30;;;;;;4952460;28;20101;-89
2022/02/13 04:52:59;;;;;;;19.07;17.87;;;3.80;67.40;;;;;;4968596;28;20034;-92
2022/02/13 04:55:25;;;;;;;17.97;17.17;;;3.80;67.40;;;;;;4963161;28;20043;-93
2022/02/13 04:57:52;;;;;;;17.30;16.50;;;3.70;67.50;;;;;;4974768;28;20035;-91
2022/02/13 05:00:18;;;;;;;16.20;15.50;;;3.70;67.50;;;;;;4958504;28;20047;-91
2022/02/13 05:02:44;;;;;;;18.10;17.20;;;3.70;67.60;;;;;;4958933;28;20035;-90
2022/02/13 05:05:11;;;;;;;17.13;16.33;;;3.70;67.60;;;;;;4957873;28;20051;-92
2022/02/13 05:07:37;;;;;;;18.20;17.40;;;3.60;67.60;;;;;;4970559;28;20026;-92
2022/02/13 05:10:04;;;;;;;17.57;16.77;;;3.60;67.60;;;;;;4941061;28;20206;-91
2022/02/13 05:12:30;;;;;;;17.37;16.57;;;3.60;67.70;;;;;;4931687;29;20074;-93
2022/02/13 05:14:56;;;;;;;17.67;16.77;;;3.50;67.70;;;;;;4944161;29;20050;-92
2022/02/13 05:17:23;;;;;;;17.60;16.80;;;3.50;67.80;;;;;;4941207;28;20055;-89
2022/02/13 05:19:49;;;;;;;17.23;16.43;;;3.40;67.80;;;;;;4958391;28;20032;-89
2022/02/13 05:22:16;;;;;;;18.27;17.07;;;3.40;68.00;;;;;;4923264;28;20048;-93
2022/02/13 05:24:42;;;;;;;18.53;17.63;;;3.40;68.00;;;;;;4931189;28;20132;-91
2022/02/13 05:27:08;;;;;;;17.90;17.10;;;3.40;67.90;;;;;;4930137;29;20384;-91
2022/02/13 05:29:35;;;;;;;17.03;16.13;;;3.40;67.90;;;;;;4959487;29;20036;-91
2022/02/13 05:32:03;;;;;;;17.70;16.90;;;3.40;67.80;;;;;;4965970;28;20406;-92
2022/02/13 05:34:30;;;;;;;17.40;16.60;;;3.40;67.90;;;;;;4957160;29;20076;-93
2022/02/13 05:36:57;;;;;;;17.70;16.90;;;3.40;67.90;;;;;;4944547;29;20047;-93
2022/02/13 05:39:23;;;;;;;17.63;16.83;;;3.30;67.90;;;;;;4954503;29;20046;-93
2022/02/13 05:41:49;;;;;;;18.30;17.47;;;3.30;67.90;;;;;;4948907;29;20066;-93
2022/02/13 05:44:15;;;;;;;18.90;17.90;;;3.30;68.00;;;;;;4950302;29;20047;-92
2022/02/13 05:46:42;;;;;;;17.17;16.37;;;3.30;68.00;;;;;;4967550;28;20043;-93
2022/02/13 05:49:08;;;;;;;18.00;17.20;;;3.30;67.90;;;;;;4935735;28;20046;-92
2022/02/13 05:51:35;;;;;;;18.00;17.20;;;3.30;67.90;;;;;;4932200;29;20051;-92
2022/02/13 05:54:01;;;;;;;17.60;16.80;;;3.30;67.90;;;;;;4949386;29;20040;-93
2022/02/13 05:56:27;;;;;;;17.57;16.67;;;3.40;67.90;;;;;;4931300;29;20046;-93
2022/02/13 05:58:53;;;;;;;17.67;16.87;;;3.40;67.80;;;;;;4940034;28;20039;-92
2022/02/13 06:01:20;;;;;;;18.00;17.03;;;3.40;67.80;;;;;;4934785;28;20043;-93
2022/02/13 06:03:46;;;;;;;18.17;17.37;;;3.40;67.80;;;;;;4942433;28;20039;-92
2022/02/13 06:06:12;;;;;;;18.13;17.33;;;3.40;67.80;;;;;;4940930;28;20055;-93
2022/02/13 06:08:39;;;;;;;19.33;18.37;;;3.40;67.80;;;;;;4950434;29;20036;-92
2022/02/13 06:11:06;;;;;;;20.13;19.03;;;3.40;67.80;;;;;;4956757;28;20047;-94
2022/02/13 06:13:32;;;;;;;18.10;17.20;;;3.50;67.80;;;;;;4941433;29;20040;-93
2022/02/13 06:16:01;;;;;;;18.63;17.73;;;3.40;67.80;;;;;;4922301;29;20031;-95
2022/02/13 06:18:28;;;;;;;20.20;19.13;;;3.40;68.00;;;;;;4959641;29;20063;-92
2022/02/13 06:20:54;;;;;;;17.03;16.23;;;3.40;68.10;;;;;;4946898;29;20058;-92
2022/02/13 06:23:20;;;;;;;18.20;17.30;;;3.40;68.00;;;;;;4949405;29;20043;-91
2022/02/13 06:25:46;;;;;;;18.67;17.70;;;3.40;68.00;;;;;;4930210;29;20050;-92
2022/02/13 06:30:43;;;;;;;17.27;16.48;;;3.40;68.00;;;;;;4965886;28;20042;-94
2022/02/13 06:33:10;;;;;;;17.90;17.10;;;3.30;68.00;;;;;;4977706;28;20043;-91
2022/02/13 06:35:36;;;;;;;19.07;18.07;;;3.30;68.00;;;;;;4972014;28;20031;-95
2022/02/13 06:38:02;;;;;;;19.87;18.87;;;3.30;68.00;;;;;;4966544;29;20027;-94
2022/02/13 06:40:29;;;;;;;19.27;18.30;;;3.30;68.10;;;;;;4975940;29;20031;-95
2022/02/13 06:42:55;;;;;;;19.00;18.10;;;3.30;68.10;;;;;;4969485;29;20046;-93
2022/02/13 06:45:21;;;;;;;18.47;17.57;;;3.30;68.10;;;;;;4957856;28;20042;-95
2022/02/13 06:47:47;;;;;;;20.20;18.60;;;3.30;68.10;;;;;;4960778;29;20046;-93
2022/02/13 06:50:14;;;;;;;17.30;16.50;;;3.30;68.10;;;;;;4963371;28;20035;-93
2022/02/13 06:52:40;;;;;;;18.30;17.20;;;3.30;68.10;;;;;;4962235;29;20489;-94
2022/02/13 06:55:06;;;;;;;18.77;17.87;;;3.30;68.10;;;;;;4963775;28;20037;-94
2022/02/13 06:57:32;;;;;;;18.60;17.70;;;3.30;68.20;;;;;;4957550;29;20502;-94
2022/02/13 06:59:58;;;;;;;19.83;18.77;;;3.30;68.10;;;;;;4958460;29;20054;-93
2022/02/13 07:02:24;;;;;;;18.80;17.90;;;3.30;68.20;;;;;;4955269;28;20067;-95
2022/02/13 07:04:50;;;;;;;18.73;17.73;;;3.30;68.20;;;;;;4960674;28;20032;-94
2022/02/13 07:07:16;;;;;;;18.90;18.00;;;3.20;68.20;;;;;;4956822;29;20363;-92
2022/02/13 07:09:42;;;;;;;17.63;16.83;;;3.20;68.20;;;;;;4951699;29;20150;-95
2022/02/13 07:12:09;;;;;;;18.00;17.00;;;3.20;68.20;;;;;;4965438;28;20039;-95
2022/02/13 07:14:36;;;;;;;17.70;16.90;;;3.20;68.30;;;;;;4963983;29;20123;-94
2022/02/13 07:17:02;;;;;;;17.97;17.17;;;3.10;68.40;;;;;;4958929;28;20036;-93
2022/02/13 07:19:28;;;;;;;16.07;15.27;;;3.10;68.50;;;;;;4957685;28;20038;-94
2022/02/13 07:21:55;;;;;;;17.53;16.73;;;3.00;68.50;;;;;;4953002;29;20487;-84
2022/02/13 07:24:21;;;;;;;18.40;17.50;;;3.00;68.60;;;;;;4951107;29;20096;-86
2022/02/13 07:26:47;;;;;;;17.43;16.63;;;3.00;68.60;;;;;;4951200;28;20480;-86
2022/02/13 07:29:13;;;;;;;17.60;16.80;;;3.10;68.70;;;;;;4946866;29;20059;-89
2022/02/13 07:31:40;;;;;;;18.73;17.80;;;3.10;68.60;;;;;;4946158;28;20039;-90
2022/02/13 07:34:06;;;;;;;16.63;15.83;;;3.10;68.70;;;;;;4943815;28;20491;-88
2022/02/13 07:36:32;;;;;;;17.33;16.53;;;3.00;68.60;;;;;;4953819;28;20046;-89
2022/02/13 07:38:58;;;;;;;17.40;16.60;;;3.00;68.70;;;;;;4955402;29;20042;-89
2022/02/13 07:41:27;;;;;;;18.37;17.47;;;3.00;68.70;;;;;;4954122;28;20402;-90
2022/02/13 07:43:54;;;;;;;18.00;17.20;;;3.10;68.70;;;;;;4957927;28;20035;-87
2022/02/13 07:46:20;;;;;;;18.50;17.63;;;3.10;68.70;;;;;;4961807;28;20035;-88
2022/02/13 07:48:46;;;;;;;17.93;17.13;;;3.10;68.60;;;;;;4940706;28;20371;-87
2022/02/13 07:51:13;;;;;;;19.63;18.53;;;3.20;68.60;;;;;;4957099;28;20410;-88
2022/02/13 07:53:39;;;;;;;17.70;16.90;;;3.20;68.50;;;;;;4954237;29;20035;-89
2022/02/13 07:56:05;;;;;;;17.50;16.70;;;3.30;68.50;;;;;;4953579;28;20043;-88
2022/02/13 07:58:34;;;;;;;17.03;16.23;;;3.30;68.50;;;;;;4953743;28;20042;-89
2022/02/13 08:01:01;;;;;;;18.47;17.47;;;3.30;68.50;;;;;;4954090;28;20504;-85
2022/02/13 08:03:27;;;;;;;16.50;15.70;;;3.30;68.50;;;;;;4935807;28;20062;-86
2022/02/13 08:05:53;;;;;;;18.97;17.80;;;3.40;68.50;;;;;;4952935;29;20038;-86
2022/02/13 08:08:20;;;;;;;18.30;17.40;;;3.40;68.50;;;;;;4947953;28;20050;-88
2022/02/13 08:10:46;;;;;;;17.00;16.20;;;3.40;68.40;;;;;;4952388;28;20408;-89
2022/02/13 08:13:16;;;;;;;18.80;17.90;;;3.40;68.40;;;;;;4943647;29;20498;-87
2022/02/13 08:15:43;;;;;;;19.67;18.67;;;3.60;68.50;;;;;;4951043;28;20039;-84
2022/02/13 08:18:14;;;;;;;20.40;19.20;;;3.80;68.00;;;;;;4945311;28;20498;-87
2022/02/13 08:20:40;;;;;;;19.38;18.48;;;4.20;67.30;;;;;;4953121;28;20027;-86
2022/02/13 08:23:07;;;;;;;17.30;16.50;;;4.50;66.40;;;;;;4942895;28;20055;-86
2022/02/13 08:25:33;;;;;;;19.53;18.53;;;4.80;65.90;;;;;;4944274;28;20024;-84
2022/02/13 08:27:59;;;;;;;1999.90;999.90;;;5.00;65.40;;;;;;4940104;28;20031;-84
2022/02/13 08:30:25;;;;;;;1999.90;999.90;;;5.20;65.10;;;;;;4951688;28;20046;-84
2022/02/13 08:32:52;;;;;;;1999.90;999.90;;;5.40;64.80;;;;;;4951617;29;20039;-84
2022/02/13 08:35:18;;;;;;;1999.90;999.90;;;5.70;64.40;;;;;;4938554;28;20058;-82
2022/02/13 08:37:44;;;;;;;1999.90;999.90;;;6.10;64.00;;;;;;4944398;28;20396;-82
2022/02/13 08:40:10;;;;;;;1999.90;999.90;;;6.40;63.40;;;;;;4952165;28;20038;-83
2022/02/13 08:42:37;;;;;;;1999.90;999.90;;;6.80;62.90;;;;;;4939759;29;20047;-81
2022/02/13 08:45:03;;;;;;;1999.90;999.90;;;7.00;62.60;;;;;;4953923;28;20023;-83
2022/02/13 08:47:30;;;;;;;1999.90;999.90;;;7.10;62.40;;;;;;4949464;28;20047;-82
2022/02/13 08:49:56;;;;;;;1999.90;999.90;;;7.30;62.30;;;;;;4952053;28;20395;-83
2022/02/13 08:52:22;;;;;;;1999.90;999.90;;;7.40;62.20;;;;;;4947989;28;20027;-84
2022/02/13 08:54:48;;;;;;;1999.90;999.90;;;7.40;62.30;;;;;;4958944;28;20038;-86
2022/02/13 08:57:14;;;;;;;1999.90;999.90;;;7.40;62.60;;;;;;4938345;28;20066;-85
2022/02/13 08:59:40;;;;;;;1999.90;999.90;;;7.30;62.70;;;;;;4942395;29;20035;-86
2022/02/13 09:02:06;;;;;;;1999.90;999.90;;;7.50;63.60;;;;;;4949567;28;20051;-84
2022/02/13 09:04:34;;;;;;;1999.90;999.90;;;7.70;62.60;;;;;;4952515;29;20382;-86
2022/02/13 09:07:01;;;;;;;1999.90;999.90;;;7.80;62.40;;;;;;4948237;29;20038;-85
2022/02/13 09:09:30;;;;;;;1999.90;999.90;;;8.00;62.20;;;;;;4950098;28;20491;-87
2022/02/13 09:11:56;;;;;;;1999.90;999.90;;;8.20;62.30;;;;;;4950245;29;20031;-83
2022/02/13 09:14:23;;;;;;;1999.90;999.90;;;8.40;62.20;;;;;;4952467;29;20039;-83
2022/02/13 09:16:50;;;;;;;1999.90;999.90;;;8.60;61.90;;;;;;4953593;28;20051;-86
2022/02/13 09:19:16;;;;;;;1999.90;999.90;;;8.70;61.80;;;;;;4947858;28;20043;-87
2022/02/13 09:21:42;;;;;;;1999.90;999.90;;;8.90;61.80;;;;;;4939155;29;20059;-87
2022/02/13 09:24:08;;;;;;;1999.90;999.90;;;8.90;61.90;;;;;;4940396;28;20031;-87
2022/02/13 09:26:35;;;;;;;1999.90;999.90;;;9.00;62.20;;;;;;4949254;28;20023;-87
2022/02/13 09:29:02;;;;;;;1999.90;999.90;;;9.00;62.30;;;;;;4950691;29;20070;-85
2022/02/13 09:31:28;;;;;;;1999.90;999.90;;;9.10;62.50;;;;;;4944714;28;20087;-86
2022/02/13 09:33:54;;;;;;;1999.90;999.90;;;9.20;62.50;;;;;;4942903;29;20040;-86
2022/02/13 09:36:20;;;;;;;1999.90;999.90;;;9.40;62.50;;;;;;4949519;28;20051;-86
2022/02/13 09:38:47;;;;;;;1999.90;999.90;;;9.40;62.70;;;;;;4940840;28;20468;-86
2022/02/13 09:41:19;;;;;;;1999.90;999.90;;;9.50;62.70;;;;;;4952072;28;20027;-86
2022/02/13 09:43:45;;;;;;;1999.90;999.90;;;9.60;62.70;;;;;;4954911;29;20054;-87
2022/02/13 09:46:15;;;;;;;1999.90;999.90;;;9.70;62.80;;;;;;4950493;28;20032;-86
2022/02/13 09:48:42;;;;;;;1999.90;999.90;;;9.70;62.90;;;;;;4955076;29;20418;-87
2022/02/13 09:51:09;;;;;;;1999.90;999.90;;;9.70;63.20;;;;;;4953948;28;20501;-86
2022/02/13 09:53:36;;;;;;;1999.90;999.90;;;9.60;63.30;;;;;;4951274;28;20027;-87
2022/02/13 09:56:05;;;;;;;1999.90;999.90;;;9.60;63.60;;;;;;4953521;29;20035;-86
2022/02/13 09:58:38;;;;;;;1999.90;999.90;;;9.60;63.90;;;;;;4945868;29;20475;-86
2022/02/13 10:01:09;;;;;;;1999.90;999.90;;;9.70;64.00;;;;;;4948032;28;20512;-87
2022/02/13 10:03:39;;;;;;;1999.90;999.90;;;9.80;63.80;;;;;;4953688;28;20058;-89
2022/02/13 10:06:11;;;;;;;1999.90;999.90;;;10.00;63.60;;;;;;4952113;29;20047;-89
2022/02/13 10:08:41;;;;;;;1999.90;999.90;;;10.00;63.50;;;;;;4952178;29;20394;-88
2022/02/13 10:11:17;;;;;;;1999.90;999.90;;;10.00;63.80;;;;;;4953784;29;20505;-88
2022/02/13 10:13:55;;;;;;;1999.90;999.90;;;10.00;64.00;;;;;;4950978;28;20043;-88
2022/02/13 10:16:25;;;;;;;1999.90;999.90;;;10.00;64.20;;;;;;4948096;28;20031;-87
2022/02/13 10:18:55;;;;;;;1999.90;999.90;;;10.00;64.20;;;;;;4944925;29;20106;-86
2022/02/13 10:21:41;;;;;;;1999.90;999.90;;;10.00;64.20;;;;;;4952223;28;20482;-87
2022/02/13 10:24:26;;;;;;;1999.90;999.90;;;10.10;64.20;;;;;;4942335;29;20074;-85
2022/02/13 10:27:07;;;;;;;1999.90;999.90;;;10.30;64.20;;;;;;4954945;28;20043;-85
2022/02/13 10:29:44;;;;;;;1999.90;999.90;;;10.40;64.00;;;;;;4948393;28;20039;-84
2022/02/13 10:32:28;;;;;;;1999.90;999.90;;;10.70;63.90;;;;;;4955581;28;20039;-85
2022/02/13 10:35:04;;;;;;;1999.90;999.90;;;10.90;63.80;;;;;;4956603;28;20378;-87
2022/02/13 10:37:42;;;;;;;1999.90;999.90;;;11.10;63.70;;;;;;4956403;28;20051;-87
2022/02/13 10:40:15;;;;;;;1999.90;999.90;;;11.30;63.70;;;;;;4948433;28;20047;-87
2022/02/13 10:42:42;;;;;;;1999.90;999.90;;;11.40;63.60;;;;;;4942434;28;20039;-89
2022/02/13 10:45:19;;;;;;;1999.90;999.90;;;11.50;63.70;;;;;;4955528;28;20409;-89
2022/02/13 10:47:45;;;;;;;1999.90;999.90;;;11.70;63.70;;;;;;4971433;28;20406;-87
2022/02/13 10:50:16;;;;;;;1999.90;999.90;;;11.80;63.70;;;;;;4948702;28;20080;-89
2022/02/13 10:52:46;;;;;;;1999.90;999.90;;;11.90;63.80;;;;;;4947583;28;20043;-88
2022/02/13 10:55:12;;;;;;;1999.90;999.90;;;12.00;63.80;;;;;;4953430;28;20035;-87
2022/02/13 10:57:40;;;;;;;1999.90;999.90;;;12.10;63.80;;;;;;4953299;28;20051;-85
2022/02/13 11:00:12;;;;;;;1999.90;999.90;;;12.20;63.80;;;;;;4955004;28;20046;-88
2022/02/13 11:02:39;;;;;;;1999.90;999.90;;;12.30;63.70;;;;;;4954889;29;20035;-84
2022/02/13 11:05:09;;;;;;;1999.90;999.90;;;12.40;63.70;;;;;;4952611;28;20474;-84
2022/02/13 11:07:44;;;;;;;1999.90;999.90;;;12.50;63.70;;;;;;4954436;28;20505;-85
2022/02/13 11:10:27;;;;;;;1999.90;999.90;;;12.60;64.60;;;;;;4954971;28;20050;-84
2022/02/13 11:12:54;;;;;;;1999.90;999.90;;;12.70;63.80;;;;;;4942968;29;20035;-87
2022/02/13 11:15:28;;;;;;;1999.90;999.90;;;12.70;63.80;;;;;;4953625;28;20415;-83
2022/02/13 11:18:05;;;;;;;1999.90;999.90;;;12.80;63.90;;;;;;4953503;29;20038;-85
2022/02/13 11:20:31;;;;;;;1999.90;999.90;;;12.90;63.80;;;;;;4954719;29;20027;-84
2022/02/13 11:23:18;;;;;;;1999.90;999.90;;;13.00;63.70;;;;;;4951855;28;20047;-84
2022/02/13 11:25:56;;;;;;;1999.90;999.90;;;13.20;63.60;;;;;;4953317;29;20039;-83
2022/02/13 11:28:25;;;;;;;1999.90;999.90;;;13.20;63.40;;;;;;4952338;29;20054;-83
2022/02/13 11:30:52;;;;;;;1999.90;999.90;;;13.20;63.50;;;;;;4930471;29;20051;-83
2022/02/13 11:33:30;;;;;;;1999.90;999.90;;;13.30;63.60;;;;;;4953540;29;20395;-83
2022/02/13 11:35:57;;;;;;;1999.90;999.90;;;13.30;63.70;;;;;;4952780;29;20032;-83
2022/02/13 11:38:48;;;;;;;1999.90;999.90;;;13.30;63.70;;;;;;4942130;29;20031;-83
2022/02/13 11:41:15;;;;;;;1999.90;999.90;;;13.40;63.80;;;;;;4951876;29;20031;-87
2022/02/13 11:43:44;;;;;;;1999.90;999.90;;;13.50;63.60;;;;;;4949948;28;20510;-84
2022/02/13 11:46:35;;;;;;;1999.90;999.90;;;13.50;63.50;;;;;;4952818;28;20409;-84
2022/02/13 11:49:04;;;;;;;1999.90;999.90;;;13.60;63.50;;;;;;4913539;29;20499;-84
2022/02/13 11:51:46;;;;;;;1999.90;999.90;;;13.70;63.30;;;;;;4913562;29;20507;-86
2022/02/13 11:54:30;;;;;;;;;;;13.70;63.30;;;;;;4910362;29;20036;-83
2022/02/13 11:57:09;;;;;;;1999.90;999.90;;;13.80;63.30;;;;;;4913691;29;19918;-84
2022/02/13 11:59:56;;;;;;;1999.90;999.90;;;13.80;63.20;;;;;;4898563;29;20107;-86
2022/02/13 12:02:31;;;;;;;1999.90;999.90;;;13.80;63.30;;;;;;4907692;29;20064;-84
2022/02/13 12:05:06;;;;;;;1999.90;999.90;;;13.90;63.30;;;;;;4904020;29;20426;-83
2022/02/13 12:07:38;;;;;;;1999.90;999.90;;;13.90;63.30;;;;;;4908114;29;20052;-85
2022/02/13 12:10:04;;;;;;;1999.90;999.90;;;13.90;63.30;;;;;;4913084;29;20052;-83
2022/02/13 12:12:31;;;;;;;1999.90;999.90;;;13.90;63.30;;;;;;4895374;29;20051;-83
2022/02/13 12:14:57;;;;;;;1999.90;999.90;;;13.90;63.40;;;;;;4899995;29;20496;-83
2022/02/13 12:17:27;;;;;;;1999.90;999.90;;;13.90;63.50;;;;;;4906678;29;20042;-83
2022/02/13 12:20:09;;;;;;;1999.90;999.90;;;13.90;63.70;;;;;;4902194;29;20041;-83
2022/02/13 12:22:36;;;;;;;1999.90;999.90;;;13.90;63.70;;;;;;4900718;29;20044;-86
2022/02/13 12:25:06;;;;;;;1999.90;999.90;;;13.90;63.70;;;;;;4911608;29;20036;-84
2022/02/13 12:27:33;;;;;;;1999.90;999.90;;;13.90;63.80;;;;;;4952683;29;20039;-85
2022/02/13 12:30:00;;;;;;;1999.90;999.90;;;13.90;63.80;;;;;;4953408;29;20058;-86